Flight Sim Network - NZQN Airport Info

    NZQN (Queenstown International Airport)  Login to use Map Selector
   

  RUNWAY INFORMATION    |    Airport Elevation : 1171ft    |    LAT : -45.0210990906  /  LON : 168.738998413
Runway Number 05R / 23L Runway Width 98' Runway Length 6204'
Lighted Runway Yes Runway StatusOpen Runway Surface Asphalt
Runway Number 05L / 23R Runway Width 131' Runway Length 2625'
Lighted Runway No Runway StatusOpen Runway Surface Grass
Runway Number 14 / 32 Runway Width 197' Runway Length 3097'
Lighted Runway No Runway StatusOpen Runway Surface Grass
  CLOSE ALTERNATE AIRPORTS
ICAODistanceAirport NameLongest RWRW SurfaceMAP
NZWF28NMWanaka Airport3937FTAsphalt
NZLX29NMAlexandra Airport3937FTAsphalt
NZMO55NMManapouri Airport5007FTAsphalt
NZOA62NMOmarama Glider Airport4551FTDirt
NZGC68NMGore Airport4206FTDirt
NZUK75NMPukaki Airport3550FTAsphalt
NZDN82NMDunedin Airport6295FTAsphalt
NZNV85NMInvercargill Airport7251FTAsphalt
NZGT89NMGlentanner Airport3166FTAsphalt
NZMC96NMMount Cook Airport5157FTAsphalt
  AIRPORT WEATHER
28°F | -2°C
Temperature
92%
Humidity
29" | 0mb
Pressure
6sm
Visibility
VFR
Flight Rules
OVC @ 6000ft
Initial Clouds
FAIR
Conditions
Wind Info
7/23/24 18:00Z
Updated

NZQN 231800Z AUTO 05005KT 9999 OVC060/// M02/M03 Q1015
  AIRPORT FREQUENCIES
NameFrequency
ATIS126.400
CLEARANCE122.200
GROUND121.900
TOWER118.100
APPROACH118.100
DEPARTURE118.100

Powered by Virtual Airlines Manager